Time;durP1;ratioP1;P1;durP2;ratioP2;P2;SDS_P1;SDS_P2;PMS_P1;PMS_P2;Temp;Humidity;BMP_temperature;BMP_pressure;BME280_temperature;BME280_humidity;BME280_pressure;Samples;Min_cycle;Max_cycle;Signal;HPM_P1;HPM_P2
2022/04/25 00:00:42;;;;;;;1.90;1.30;;;;;;;20.13;42.54;100922.50;5140539;28;20027;-52
2022/04/25 00:03:08;;;;;;;3.25;1.40;;;;;;;20.13;42.40;100916.28;5144244;28;20246;-49
2022/04/25 00:05:33;;;;;;;1.45;1.33;;;;;;;20.12;42.55;100915.44;5143465;28;20031;-53
2022/04/25 00:07:58;;;;;;;3.00;1.52;;;;;;;20.12;42.55;100914.59;5144217;28;20027;-49
2022/04/25 00:10:23;;;;;;;1.30;1.20;;;;;;;20.09;42.80;100909.53;5144098;28;20031;-49
2022/04/25 00:12:48;;;;;;;1.83;1.38;;;;;;;20.11;42.75;100911.06;5143605;28;20030;-52
2022/04/25 00:15:14;;;;;;;1.95;1.35;;;;;;;19.99;42.79;100890.88;5125813;28;20038;-52
2022/04/25 00:17:39;;;;;;;1.67;1.35;;;;;;;20.11;42.36;100911.06;5144496;28;20030;-49
2022/04/25 00:20:07;;;;;;;1.65;1.20;;;;;;;20.10;42.68;100909.38;5144289;28;20050;-49
2022/04/25 00:22:32;;;;;;;1.80;1.33;;;;;;;20.10;42.78;100911.25;5143574;28;20031;-50
2022/04/25 00:24:58;;;;;;;1.30;1.17;;;;;;;20.08;42.72;100903.31;5144175;28;20023;-47
2022/04/25 00:27:23;;;;;;;2.30;1.30;;;;;;;20.10;42.50;100911.25;5125060;28;20110;-51
2022/04/25 00:29:48;;;;;;;1.38;1.08;;;;;;;19.99;42.70;100893.56;5108756;28;20049;-50
2022/04/25 00:32:13;;;;;;;1.38;1.27;;;;;;;20.09;42.54;100906.84;5125865;28;20030;-48
2022/04/25 00:34:39;;;;;;;2.63;1.50;;;;;;;20.07;42.53;100900.78;5125532;28;20024;-53
2022/04/25 00:37:04;;;;;;;2.10;1.38;;;;;;;20.09;42.30;100905.00;5110971;27;20057;-52
2022/04/25 00:39:30;;;;;;;1.35;1.00;;;;;;;20.09;42.13;100910.41;5112285;27;20043;-52
2022/04/25 00:41:57;;;;;;;1.67;1.33;;;;;;;20.09;42.16;100906.84;5129251;27;20613;-51
2022/04/25 00:44:22;;;;;;;1.85;1.08;;;;;;;20.07;42.19;100908.91;5147548;27;20398;-48
2022/04/25 00:46:49;;;;;;;1.27;1.17;;;;;;;20.08;42.18;100906.00;5146932;27;20031;-47
2022/04/25 00:49:14;;;;;;;2.13;1.50;;;;;;;19.97;42.27;100893.75;5148292;27;20543;-53
2022/04/25 00:51:40;;;;;;;1.73;1.27;;;;;;;20.05;42.49;100911.78;5147507;27;20027;-50
2022/04/25 00:54:06;;;;;;;1.60;1.20;;;;;;;20.05;42.33;100903.69;5147391;27;20118;-51
2022/04/25 00:56:32;;;;;;;1.40;1.30;;;;;;;20.05;41.95;100902.81;5147629;27;20673;-48
2022/04/25 00:58:58;;;;;;;1.17;1.08;;;;;;;20.06;42.32;100905.34;5128682;27;20034;-49
2022/04/25 01:01:24;;;;;;;1.30;1.20;;;;;;;20.05;42.27;100903.69;5129443;27;20087;-49
2022/04/25 01:03:50;;;;;;;1.20;1.10;;;;;;;20.03;41.98;100900.31;5129203;27;20054;-49
2022/04/25 01:06:15;;;;;;;1.48;1.10;;;;;;;19.94;42.19;100891.41;5128668;27;20034;-51
2022/04/25 01:08:40;;;;;;;1.30;1.00;;;;;;;20.04;42.07;100901.97;5128747;27;20038;-51
2022/04/25 01:11:06;;;;;;;1.95;1.25;;;;;;;20.01;42.09;100896.97;5128985;27;20027;-49
2022/04/25 01:13:32;;;;;;;1.40;1.00;;;;;;;20.03;41.95;100912.97;5111360;27;20023;-51
2022/04/25 01:15:57;;;;;;;1.50;1.08;;;;;;;20.03;42.01;100905.69;5147155;27;20023;-47
2022/04/25 01:18:22;;;;;;;1.60;1.23;;;;;;;19.91;42.10;100886.34;5147739;27;20031;-49
2022/04/25 01:20:49;;;;;;;1.30;0.95;;;;;;;19.92;41.80;100885.38;5128516;27;20034;-53
2022/04/25 01:28:52;;;;;;;1.65;1.30;;;;;;;19.90;42.09;100892.78;5130804;27;20025;-51
2022/04/25 01:31:17;;;;;;;1.38;1.25;;;;;;;19.98;41.91;100898.13;5111855;27;20023;-49
2022/04/25 01:33:43;;;;;;;1.42;1.27;;;;;;;19.99;41.72;100909.78;5129022;27;20037;-49
2022/04/25 01:36:08;;;;;;;1.70;1.08;;;;;;;19.88;42.15;100891.25;5146301;27;20035;-50
2022/04/25 01:38:33;;;;;;;1.83;1.02;;;;;;;19.98;42.10;100908.09;5118636;28;20083;-53
2022/04/25 01:40:59;;;;;;;1.35;1.25;;;;;;;19.88;41.55;100894.81;5115423;27;20054;-53
2022/04/25 01:43:24;;;;;;;2.30;1.30;;;;;;;19.97;42.09;100901.03;5127814;27;20029;-51
2022/04/25 01:45:50;;;;;;;1.88;1.20;;;;;;;19.96;41.85;100902.00;5146497;27;20387;-50
2022/04/25 01:48:15;;;;;;;1.20;1.02;;;;;;;19.95;41.68;100903.03;5146313;27;20050;-49
2022/04/25 01:50:42;;;;;;;1.45;1.10;;;;;;;19.92;42.04;100904.25;5146452;27;20487;-48
2022/04/25 01:53:07;;;;;;;2.20;0.95;;;;;;;19.94;41.62;100909.47;5143203;27;20030;-52
2022/04/25 01:55:32;;;;;;;1.48;1.00;;;;;;;19.93;41.88;100905.94;5146720;27;20028;-51
2022/04/25 01:57:57;;;;;;;1.33;1.10;;;;;;;19.93;41.97;100911.31;5127703;27;20023;-48
2022/04/25 02:00:23;;;;;;;1.35;1.08;;;;;;;19.91;41.82;100905.25;5146460;27;20022;-49
2022/04/25 02:02:48;;;;;;;1.92;1.30;;;;;;;19.92;41.87;100909.66;5111013;27;20027;-51
2022/04/25 02:05:13;;;;;;;1.83;1.20;;;;;;;19.92;41.65;100915.03;5146269;27;20038;-51
2022/04/25 02:07:38;;;;;;;2.25;1.40;;;;;;;19.90;41.49;100919.75;5146346;27;20027;-50
2022/04/25 02:10:04;;;;;;;1.27;1.17;;;;;;;19.90;41.63;100914.34;5127633;27;20472;-54
2022/04/25 02:12:29;;;;;;;1.55;1.13;;;;;;;19.78;41.88;100891.47;5127198;27;20029;-47
2022/04/25 02:14:55;;;;;;;1.75;1.10;;;;;;;19.80;41.68;100886.75;5146178;27;20052;-48
2022/04/25 02:17:20;;;;;;;1.90;1.00;;;;;;;19.80;41.98;100892.16;5146350;27;20034;-51
2022/04/25 02:19:45;;;;;;;1.63;1.00;;;;;;;19.88;41.42;100902.91;5110814;27;20430;-52
2022/04/25 02:22:11;;;;;;;1.40;1.13;;;;;;;19.88;41.68;100902.91;5110121;27;20113;-49
2022/04/25 02:24:38;;;;;;;1.77;1.35;;;;;;;19.86;41.40;100902.22;5107024;28;20018;-52
2022/04/25 02:27:04;;;;;;;2.15;1.30;;;;;;;19.78;41.67;100887.94;5106841;28;20027;-53
2022/04/25 02:29:35;;;;;;;1.77;1.30;;;;;;;19.87;41.84;100906.59;5123882;27;20070;-48
2022/04/25 02:32:01;;;;;;;1.38;1.20;;;;;;;19.86;41.50;100906.78;5110449;27;20023;-50
2022/04/25 02:34:28;;;;;;;1.23;1.10;;;;;;;19.75;41.86;100889.13;5127448;27;20046;-48
2022/04/25 02:36:55;;;;;;;1.67;1.23;;;;;;;19.85;41.72;100910.50;5127086;27;20033;-51
2022/04/25 02:39:21;;;;;;;1.98;1.63;;;;;;;19.83;41.66;100907.97;5127449;27;20034;-50
2022/04/25 02:41:46;;;;;;;1.13;1.02;;;;;;;19.83;41.71;100907.13;5145187;27;20043;-53
2022/04/25 02:44:11;;;;;;;1.58;1.13;;;;;;;19.81;41.74;100904.63;5145250;27;20079;-51
2022/04/25 02:46:36;;;;;;;1.38;1.00;;;;;;;19.81;41.60;100912.72;5109557;27;20019;-50
2022/04/25 02:49:01;;;;;;;1.40;1.20;;;;;;;19.81;41.78;100910.03;5144743;27;20413;-51
2022/04/25 02:51:27;;;;;;;1.73;1.15;;;;;;;19.78;41.76;100909.53;5143968;27;20723;-51
2022/04/25 02:53:52;;;;;;;1.52;1.15;;;;;;;19.80;41.78;100918.31;5144921;27;20058;-51
2022/04/25 02:56:17;;;;;;;1.27;1.00;;;;;;;19.79;41.60;100919.28;5145347;27;20655;-52
2022/04/25 02:58:43;;;;;;;1.80;1.20;;;;;;;19.77;41.77;100910.53;5144921;27;20507;-50
2022/04/25 03:01:08;;;;;;;2.15;1.45;;;;;;;19.73;41.52;100904.66;5126460;27;20031;-49
2022/04/25 03:03:35;;;;;;;1.02;0.90;;;;;;;19.78;41.86;100914.91;5106677;28;20061;-50
2022/04/25 03:06:02;;;;;;;1.25;1.10;;;;;;;19.78;41.49;100914.91;5106138;28;20481;-47
2022/04/25 03:08:28;;;;;;;1.77;1.20;;;;;;;19.77;41.77;100915.94;5089199;28;20020;-51
2022/04/25 03:10:54;;;;;;;1.60;0.90;;;;;;;19.76;41.61;100915.09;5106506;28;20062;-51
2022/04/25 03:13:20;;;;;;;1.50;1.10;;;;;;;19.76;41.33;100915.09;5088922;28;20027;-51
2022/04/25 03:15:49;;;;;;;2.28;1.50;;;;;;;19.73;41.81;100916.28;5106189;28;20040;-50
2022/04/25 03:18:16;;;;;;;2.47;1.40;;;;;;;19.75;41.46;100915.25;5106935;28;20027;-53
2022/04/25 03:20:43;;;;;;;1.45;1.33;;;;;;;19.75;41.55;100923.34;5105549;28;20027;-52
2022/04/25 03:23:08;;;;;;;1.35;1.00;;;;;;;19.74;41.40;100925.22;5112963;27;20027;-51
2022/04/25 03:25:34;;;;;;;2.88;1.30;;;;;;;19.72;41.72;100928.09;5144984;27;20031;-49
2022/04/25 03:27:59;;;;;;;1.55;1.10;;;;;;;19.65;41.76;100910.91;5144209;27;20057;-51
2022/04/25 03:30:25;;;;;;;1.40;1.20;;;;;;;19.71;41.46;100929.13;5109582;27;20054;-51
2022/04/25 03:32:50;;;;;;;1.58;1.10;;;;;;;19.66;41.48;100917.13;5109469;27;20047;-49
2022/04/25 03:35:17;;;;;;;1.58;1.17;;;;;;;19.69;41.46;100924.91;5144831;27;20023;-53
2022/04/25 03:37:44;;;;;;;1.13;1.02;;;;;;;19.61;41.62;100906.03;5126078;27;20023;-52
2022/04/25 03:40:12;;;;;;;1.25;1.08;;;;;;;19.68;41.75;100925.91;5125724;27;20492;-50
2022/04/25 03:42:38;;;;;;;1.20;1.03;;;;;;;19.68;41.43;100932.16;5108881;27;20035;-49
2022/04/25 03:45:11;;;;;;;1.33;1.10;;;;;;;19.68;41.45;100924.06;5126026;27;20076;-51
2022/04/25 03:47:37;;;;;;;1.67;1.40;;;;;;;19.67;41.40;100929.63;5126845;28;20038;-51
2022/04/25 03:50:03;;;;;;;1.65;1.23;;;;;;;19.67;41.59;100927.78;5126460;27;20031;-50
2022/04/25 03:52:29;;;;;;;1.83;1.13;;;;;;;19.66;41.66;100931.47;5125260;27;20027;-52
2022/04/25 03:57:38;;;;;;;1.67;1.35;;;;;;;19.65;41.46;100937.03;5144046;27;20030;-50
2022/04/25 04:00:05;;;;;;;1.20;1.10;;;;;;;19.65;41.68;100931.66;5126365;28;20086;-48
2022/04/25 04:02:30;;;;;;;1.15;1.00;;;;;;;19.60;41.65;100924.03;5125857;28;20023;-52
2022/04/25 04:04:56;;;;;;;1.33;1.00;;;;;;;19.62;41.39;100932.81;5144242;28;20027;-51
2022/04/25 04:07:21;;;;;;;1.52;1.20;;;;;;;19.62;41.62;100940.91;5144174;28;20171;-49
2022/04/25 04:09:47;;;;;;;1.42;1.33;;;;;;;19.62;41.49;100932.81;5143943;28;20039;-53
2022/04/25 04:12:13;;;;;;;1.77;1.20;;;;;;;19.61;41.36;100930.31;5147151;27;20027;-48
2022/04/25 04:14:39;;;;;;;1.48;1.15;;;;;;;19.61;41.17;100928.44;5148592;27;20023;-48
2022/04/25 04:17:08;;;;;;;1.42;1.00;;;;;;;19.60;41.57;100931.31;5148490;27;20027;-52
2022/04/25 04:19:38;;;;;;;1.52;1.00;;;;;;;19.60;41.73;100931.31;5113472;27;20015;-50
2022/04/25 04:22:04;;;;;;;1.17;1.08;;;;;;;19.59;41.29;100935.84;5129340;27;20027;-53
2022/04/25 04:24:34;;;;;;;1.75;1.20;;;;;;;19.60;41.38;100940.22;5129634;27;20048;-49
2022/04/25 04:27:04;;;;;;;2.38;1.30;;;;;;;19.59;41.22;100937.72;5130340;27;20021;-50
2022/04/25 04:29:31;;;;;;;1.20;1.10;;;;;;;19.58;41.35;100944.97;5113464;27;20120;-51
2022/04/25 04:32:05;;;;;;;1.30;1.17;;;;;;;19.48;41.28;100925.41;5129832;27;20019;-52
2022/04/25 04:34:31;;;;;;;1.20;1.00;;;;;;;19.48;41.20;100923.56;5148120;27;20019;-49
2022/04/25 04:36:56;;;;;;;1.85;0.90;;;;;;;19.57;41.23;100945.97;5147897;27;20026;-51
2022/04/25 04:39:21;;;;;;;1.00;0.90;;;;;;;19.47;41.32;100932.66;5147805;27;20602;-50
2022/04/25 04:41:46;;;;;;;1.65;1.27;;;;;;;19.56;41.18;100954.22;5144650;27;20035;-50
2022/04/25 04:44:13;;;;;;;1.13;1.02;;;;;;;19.55;41.13;100950.69;5141503;27;20030;-49
2022/04/25 04:46:38;;;;;;;1.40;1.10;;;;;;;19.54;41.15;100958.94;5146275;27;20023;-52
2022/04/25 04:49:03;;;;;;;1.48;1.00;;;;;;;19.54;41.40;100964.34;5146388;27;20027;-51
2022/04/25 04:51:29;;;;;;;1.00;0.95;;;;;;;19.54;41.46;100972.41;5147262;27;20042;-52
2022/04/25 04:53:54;;;;;;;1.25;1.10;;;;;;;19.44;41.08;100959.13;5112167;27;20038;-51
2022/04/25 04:56:19;;;;;;;1.80;1.20;;;;;;;19.53;41.21;100976.97;5129333;27;20019;-53
2022/04/25 04:58:45;;;;;;;2.00;1.45;;;;;;;19.52;41.05;100979.84;5128782;27;20023;-48
2022/04/25 05:01:11;;;;;;;1.35;1.15;;;;;;;19.52;41.44;100977.16;5147591;27;20026;-47
2022/04/25 05:03:36;;;;;;;1.52;1.30;;;;;;;19.51;41.09;100984.41;5128708;27;20111;-49
2022/04/25 05:06:02;;;;;;;1.65;1.20;;;;;;;19.51;41.24;100978.19;5115865;28;20047;-51
2022/04/25 05:08:27;;;;;;;1.63;1.15;;;;;;;19.50;41.29;100982.75;5108201;28;20024;-53
2022/04/25 05:10:54;;;;;;;1.60;1.30;;;;;;;19.50;41.58;100996.22;5091770;28;20034;-53
2022/04/25 05:13:20;;;;;;;1.63;1.17;;;;;;;19.49;41.37;100992.66;5126072;27;20098;-50
2022/04/25 05:15:46;;;;;;;1.40;1.15;;;;;;;19.48;41.40;101004.47;5126562;28;20096;-49
2022/04/25 05:18:11;;;;;;;1.52;1.05;;;;;;;19.39;41.75;100988.47;5127009;28;20466;-50
2022/04/25 05:20:37;;;;;;;1.63;1.17;;;;;;;19.47;41.68;101013.56;5141030;27;20035;-48
2022/04/25 05:23:03;;;;;;;1.70;1.23;;;;;;;19.46;41.39;101006.50;5126864;27;20066;-48
2022/04/25 05:25:29;;;;;;;1.85;1.52;;;;;;;19.47;41.36;101016.25;5111734;27;20112;-53
2022/04/25 05:27:55;;;;;;;1.23;1.10;;;;;;;19.37;41.75;101002.13;5146540;27;20058;-48
2022/04/25 05:30:22;;;;;;;1.52;1.38;;;;;;;19.47;41.50;101024.34;5127901;27;20056;-49
2022/04/25 05:32:52;;;;;;;1.50;1.30;;;;;;;19.46;41.48;101013.75;5119081;27;20101;-50
2022/04/25 05:35:25;;;;;;;1.30;1.10;;;;;;;19.47;41.86;101012.72;5122651;27;20038;-52
2022/04/25 05:37:50;;;;;;;1.33;1.23;;;;;;;19.45;41.41;101030.91;5125716;28;20023;-49
2022/04/25 05:40:17;;;;;;;1.42;1.15;;;;;;;19.45;41.52;101030.91;5127431;27;20047;-49
2022/04/25 05:42:42;;;;;;;1.30;1.10;;;;;;;19.35;41.75;101023.00;5138676;27;20034;-47
2022/04/25 05:45:09;;;;;;;1.58;1.10;;;;;;;19.45;41.74;101039.00;5132123;27;20031;-52
2022/04/25 05:47:35;;;;;;;1.10;0.93;;;;;;;19.43;41.81;101032.97;5145503;27;20039;-51
2022/04/25 05:52:46;;;;;;;1.63;1.45;;;;;;;19.41;41.82;101038.53;5127052;27;20088;-50
2022/04/25 05:55:11;;;;;;;1.48;1.30;;;;;;;19.30;41.59;101022.69;5123371;27;20472;-51
2022/04/25 05:57:37;;;;;;;1.38;1.05;;;;;;;19.33;42.21;101029.59;5121294;27;20034;-46
2022/04/25 06:00:05;;;;;;;1.40;1.30;;;;;;;19.42;41.86;101048.28;5122035;27;20023;-49
2022/04/25 06:02:31;;;;;;;1.58;1.33;;;;;;;19.37;41.89;101039.88;5145967;27;20023;-51
2022/04/25 06:04:56;;;;;;;1.60;1.50;;;;;;;19.40;41.86;101047.59;5126826;27;20052;-47
2022/04/25 06:07:21;;;;;;;1.33;1.20;;;;;;;19.40;42.12;101050.31;5106785;27;20015;-53
2022/04/25 06:09:47;;;;;;;1.25;1.08;;;;;;;19.41;41.89;101052.00;5145712;27;20118;-48
2022/04/25 06:12:12;;;;;;;1.40;1.30;;;;;;;19.41;41.95;101048.44;5139174;27;20028;-49
2022/04/25 06:14:38;;;;;;;1.90;1.42;;;;;;;19.40;42.12;101057.56;5140068;27;20026;-50
2022/04/25 06:17:03;;;;;;;1.55;1.35;;;;;;;19.40;41.92;101053.00;5130802;27;20064;-51
2022/04/25 06:19:28;;;;;;;1.90;1.38;;;;;;;19.40;41.69;101066.47;5121803;27;20037;-49
2022/04/25 06:21:54;;;;;;;1.80;1.20;;;;;;;19.40;42.24;101068.34;5145266;27;20035;-52
2022/04/25 06:24:19;;;;;;;1.73;1.30;;;;;;;19.39;42.12;101063.97;5136756;27;20023;-48
2022/04/25 06:26:49;;;;;;;1.63;1.48;;;;;;;19.39;42.03;101072.06;5125071;27;20020;-50
2022/04/25 06:29:14;;;;;;;2.53;1.38;;;;;;;19.39;42.21;101066.66;5117874;27;20035;-50
2022/04/25 06:31:40;;;;;;;1.90;1.60;;;;;;;19.27;42.26;101043.72;5145324;27;20027;-50
2022/04/25 06:34:05;;;;;;;1.80;1.42;;;;;;;19.38;42.14;101067.69;5126487;27;20019;-52
2022/04/25 06:36:32;;;;;;;1.92;1.50;;;;;;;19.37;42.40;101069.53;5126083;27;20018;-51
2022/04/25 06:38:58;;;;;;;1.77;1.40;;;;;;;19.37;42.21;101072.22;5132171;27;20027;-54
2022/04/25 06:41:23;;;;;;;1.65;1.40;;;;;;;19.38;42.45;101070.38;5117541;27;20047;-53
2022/04/25 06:43:48;;;;;;;1.55;1.40;;;;;;;19.36;42.23;101075.91;5126313;27;20027;-52
2022/04/25 06:46:14;;;;;;;2.08;1.60;;;;;;;19.27;42.18;101066.13;5144556;27;20038;-53
2022/04/25 06:48:39;;;;;;;1.80;1.70;;;;;;;19.34;42.58;101083.34;5144640;27;20037;-51
2022/04/25 06:51:04;;;;;;;2.28;1.60;;;;;;;19.32;42.24;101084.50;5144073;27;20031;-53
2022/04/25 06:53:29;;;;;;;2.50;1.70;;;;;;;19.29;42.42;101092.94;5126840;27;20040;-54
2022/04/25 06:55:55;;;;;;;2.13;1.90;;;;;;;19.28;42.25;101091.25;5150026;27;20092;-55
2022/04/25 06:58:20;;;;;;;2.80;2.05;;;;;;;19.26;42.45;101096.81;5146696;27;20083;-55
2022/04/25 07:00:47;;;;;;;2.80;1.77;;;;;;;19.15;42.44;101079.09;5128438;27;20027;-48
2022/04/25 07:03:12;;;;;;;2.17;1.77;;;;;;;19.15;42.26;101086.34;5110804;27;20027;-52
2022/04/25 07:05:38;;;;;;;2.38;1.70;;;;;;;19.10;42.17;101083.28;5129687;27;20023;-51
2022/04/25 07:08:04;;;;;;;1.60;1.50;;;;;;;19.21;42.42;101102.69;5105540;28;20024;-51
2022/04/25 07:10:29;;;;;;;2.75;1.70;;;;;;;19.18;42.20;101104.88;5124468;27;20168;-51
2022/04/25 07:12:56;;;;;;;2.38;1.80;;;;;;;19.02;42.34;101067.94;5119236;27;20117;-52
2022/04/25 07:15:21;;;;;;;2.22;1.90;;;;;;;19.15;42.47;101105.19;5132635;27;20061;-51
2022/04/25 07:17:50;;;;;;;2.42;1.63;;;;;;;19.15;42.39;101102.50;5130372;27;20035;-53
2022/04/25 07:20:15;;;;;;;2.30;1.83;;;;;;;19.05;42.53;101088.34;5142909;27;20027;-49
2022/04/25 07:30:53;;;;;;;4.50;2.47;;;;;;;19.06;42.22;101111.59;5128566;27;20034;-52
2022/04/25 07:33:18;;;;;;;2.10;1.90;;;;;;;19.05;42.43;101110.75;5144574;27;20023;-52
2022/04/25 07:35:43;;;;;;;2.00;1.73;;;;;;;19.04;42.42;101109.06;5144177;27;20384;-49
2022/04/25 07:38:10;;;;;;;2.55;2.25;;;;;;;19.01;42.34;101103.16;5102821;28;20081;-51
2022/04/25 07:40:36;;;;;;;2.78;2.20;;;;;;;19.05;42.34;101104.50;5128161;27;20099;-54
2022/04/25 07:43:02;;;;;;;2.58;2.08;;;;;;;19.06;42.94;101108.88;5143506;27;20019;-50
2022/04/25 07:45:27;;;;;;;2.97;2.10;;;;;;;19.07;42.75;101115.97;5148118;27;20078;-48
2022/04/25 07:47:52;;;;;;;2.55;2.28;;;;;;;19.07;42.49;101113.25;5165454;27;20025;-51
2022/04/25 07:50:23;;;;;;;2.55;1.80;;;;;;;19.09;42.57;101112.09;5165480;27;20023;-52
2022/04/25 07:52:48;;;;;;;2.50;1.90;;;;;;;19.10;42.72;101119.16;5164580;27;20043;-52
2022/04/25 07:55:13;;;;;;;1.80;1.60;;;;;;;19.11;42.36;101128.94;5165342;27;20050;-51
2022/04/25 07:57:39;;;;;;;2.22;2.03;;;;;;;19.11;42.30;101117.31;5164416;27;20018;-49
2022/04/25 08:00:05;;;;;;;1.65;1.55;;;;;;;19.12;42.29;101130.66;5140173;27;20114;-59
2022/04/25 08:02:30;;;;;;;1.95;1.60;;;;;;;19.03;42.19;101112.78;5102948;28;20027;-58
2022/04/25 08:04:55;;;;;;;2.40;1.83;;;;;;;19.13;42.51;101131.50;5120747;27;20052;-59
2022/04/25 08:07:22;;;;;;;2.03;1.60;;;;;;;19.10;42.61;101126.41;5122134;28;20034;-58
2022/04/25 08:09:47;;;;;;;2.22;1.70;;;;;;;19.12;42.75;101127.13;5141885;28;20042;-58
2022/04/25 08:20:28;;;;;;;2.30;1.80;;;;;;;19.11;42.79;101141.56;5140050;28;20102;-57
2022/04/25 08:22:54;;;;;;;2.38;1.67;;;;;;;19.11;42.75;101139.72;5105694;28;20193;-57
2022/04/25 08:25:20;;;;;;;2.42;1.77;;;;;;;19.11;42.62;101146.97;5123943;28;20023;-57
2022/04/25 08:27:45;;;;;;;2.72;1.80;;;;;;;19.11;43.10;101147.81;5140504;28;20030;-56
2022/04/25 08:30:11;;;;;;;1.90;1.60;;;;;;;19.09;42.98;101143.59;5142372;28;20046;-58
2022/04/25 08:32:37;;;;;;;2.20;1.70;;;;;;;19.11;42.99;101139.72;5123516;28;20027;-58
2022/04/25 08:35:02;;;;;;;2.00;1.75;;;;;;;19.11;42.68;101149.66;5106701;28;20026;-58
2022/04/25 08:37:28;;;;;;;2.42;2.00;;;;;;;19.00;43.01;101133.81;5140743;28;20034;-55
2022/04/25 08:39:53;;;;;;;2.42;2.10;;;;;;;19.12;42.80;101156.75;5123213;28;20055;-55
2022/04/25 08:42:20;;;;;;;2.22;1.85;;;;;;;19.12;42.70;101159.47;5122315;28;20031;-48
2022/04/25 08:44:48;;;;;;;2.67;2.15;;;;;;;19.12;43.11;101151.38;5123572;27;20046;-48
2022/04/25 08:47:14;;;;;;;2.13;1.90;;;;;;;19.11;43.03;101144.28;5137272;28;20264;-53
2022/04/25 08:49:39;;;;;;;1.77;1.65;;;;;;;19.01;42.90;101139.03;5123003;28;20027;-53
2022/04/25 08:52:06;;;;;;;3.22;2.00;;;;;;;19.12;43.20;101164.84;5141526;28;20058;-56
2022/04/25 08:54:32;;;;;;;2.83;1.98;;;;;;;19.00;43.16;101141.91;5123081;28;20083;-53
2022/04/25 08:56:58;;;;;;;2.83;2.25;;;;;;;19.12;43.00;101167.53;5123244;27;20080;-54
2022/04/25 08:59:24;;;;;;;2.50;2.00;;;;;;;19.11;43.30;101174.75;5126401;27;20500;-52
2022/04/25 09:01:49;;;;;;;1.65;1.52;;;;;;;19.12;43.17;101175.63;5109441;27;20027;-51
2022/04/25 09:04:15;;;;;;;2.05;1.80;;;;;;;19.02;43.30;101170.34;5110035;27;20019;-53
2022/04/25 09:06:41;;;;;;;2.35;1.83;;;;;;;19.12;43.28;101194.50;5126097;27;20706;-48
2022/04/25 09:09:06;;;;;;;2.15;1.83;;;;;;;19.12;43.09;101192.63;5143647;27;20035;-49
2022/04/25 09:14:16;;;;;;;2.45;1.83;;;;;;;19.00;43.46;101174.22;5126034;27;20038;-53
2022/04/25 09:16:42;;;;;;;2.03;1.80;;;;;;;19.00;43.58;101175.06;5123655;27;20031;-53
2022/04/25 09:19:07;;;;;;;2.38;1.85;;;;;;;19.11;43.45;101204.41;5141164;27;20053;-47
2022/04/25 09:21:41;;;;;;;2.78;2.05;;;;;;;19.13;43.41;101205.09;5144053;27;20023;-47
2022/04/25 09:24:20;;;;;;;2.83;1.85;;;;;;;19.13;43.30;101201.56;5144629;27;20742;-47
2022/04/25 09:26:46;;;;;;;2.38;1.77;;;;;;;19.11;43.29;101200.88;5122829;27;20039;-52
2022/04/25 09:29:11;;;;;;;2.47;2.05;;;;;;;19.12;43.19;101207.97;5124771;27;20597;-55
2022/04/25 09:31:46;;;;;;;2.38;1.80;;;;;;;19.13;43.21;101206.97;5144675;27;20065;-54
2022/04/25 09:34:15;;;;;;;2.40;1.85;;;;;;;19.01;43.29;101192.09;5139843;27;20033;-56
2022/04/25 09:36:48;;;;;;;2.67;2.17;;;;;;;19.11;43.40;101208.94;5126793;27;20055;-45
2022/04/25 09:39:30;;;;;;;2.30;1.83;;;;;;;19.12;43.17;101216.91;5146603;27;20042;-49
2022/04/25 09:41:56;;;;;;;4.03;2.47;;;;;;;19.01;43.48;101201.00;5128036;27;20066;-45
2022/04/25 09:44:22;;;;;;;2.83;1.73;;;;;;;19.12;43.32;101210.66;5128062;27;20031;-46
2022/04/25 09:46:47;;;;;;;2.28;1.98;;;;;;;19.03;43.38;101190.06;5146804;27;20023;-46
2022/04/25 09:49:18;;;;;;;2.35;1.60;;;;;;;19.13;43.30;101220.44;5109271;27;20023;-43
2022/04/25 09:52:03;;;;;;;2.03;1.77;;;;;;;19.13;43.26;101213.19;5107277;28;20105;-45
2022/04/25 09:54:30;;;;;;;2.08;1.63;;;;;;;19.12;43.10;101216.06;5125004;27;20027;-44
2022/04/25 09:56:55;;;;;;;2.22;2.00;;;;;;;19.12;43.16;101214.19;5146279;27;20031;-45
2022/04/25 09:59:21;;;;;;;2.10;1.90;;;;;;;19.12;43.25;101218.75;5117127;28;20053;-52
2022/04/25 10:02:02;;;;;;;2.30;1.70;;;;;;;19.13;43.31;101215.88;5110543;27;20062;-50
2022/04/25 10:04:31;;;;;;;2.67;1.92;;;;;;;19.13;43.16;101217.72;5121150;27;20067;-49
2022/04/25 10:07:00;;;;;;;1.60;1.50;;;;;;;19.02;43.00;101208.06;5143153;27;20050;-53
2022/04/25 10:09:30;;;;;;;2.45;1.83;;;;;;;19.02;43.30;101204.53;5142400;27;20035;-51
2022/04/25 10:12:00;;;;;;;3.90;1.83;;;;;;;19.12;43.20;101224.13;5125078;27;20090;-49
2022/04/25 10:14:26;;;;;;;2.53;1.85;;;;;;;19.12;43.29;101221.44;5122507;27;20384;-53
2022/04/25 10:16:54;;;;;;;1.90;1.65;;;;;;;19.13;43.43;101223.13;5131635;27;20054;-52
2022/04/25 10:19:21;;;;;;;2.70;2.08;;;;;;;19.02;43.57;101209.94;5143259;27;20464;-53
2022/04/25 10:21:46;;;;;;;1.60;1.50;;;;;;;19.11;43.19;101225.97;5124373;27;20026;-49
2022/04/25 10:24:13;;;;;;;1.85;1.65;;;;;;;19.01;43.34;101206.41;5125286;27;20023;-50
2022/04/25 10:26:38;;;;;;;2.63;2.00;;;;;;;19.11;43.33;101225.13;5124316;27;20046;-50
2022/04/25 10:29:11;;;;;;;1.90;1.70;;;;;;;19.14;43.44;101235.59;5140655;27;20411;-54
2022/04/25 10:31:41;;;;;;;2.03;1.83;;;;;;;19.13;43.28;101237.44;5124005;27;20026;-51
2022/04/25 10:34:07;;;;;;;2.05;1.75;;;;;;;19.02;43.49;101223.41;5107837;27;20053;-52
2022/04/25 10:36:38;;;;;;;3.00;2.03;;;;;;;19.14;43.25;101251.75;5124672;27;20499;-45
2022/04/25 10:39:14;;;;;;;2.80;2.00;;;;;;;19.04;43.03;101240.28;5123314;27;20031;-50
2022/04/25 10:44:37;;;;;;;3.47;2.45;;;;;;;19.11;42.85;101255.63;5142349;27;20537;-47
2022/04/25 10:47:05;;;;;;;3.70;2.20;;;;;;;19.12;42.83;101253.78;5143309;27;20023;-47
2022/04/25 10:49:31;;;;;;;3.28;2.72;;;;;;;19.00;43.00;101244.28;5142683;27;20022;-46
2022/04/25 10:51:56;;;;;;;2.88;2.35;;;;;;;19.10;42.85;101258.47;5142110;27;20501;-47
2022/04/25 10:54:23;;;;;;;4.03;2.47;;;;;;;19.08;42.76;101263.19;5143061;27;20035;-46
2022/04/25 10:57:04;;;;;;;2.38;1.98;;;;;;;19.09;43.08;101270.28;5123559;27;20023;-46
2022/04/25 10:59:29;;;;;;;2.90;2.10;;;;;;;19.07;42.75;101266.88;5140434;27;20019;-46
2022/04/25 11:01:56;;;;;;;2.40;2.03;;;;;;;19.05;42.91;101275.13;5123370;27;20027;-46
2022/04/25 11:04:22;;;;;;;3.03;2.17;;;;;;;19.06;42.78;101278.66;5123340;27;20092;-52
2022/04/25 11:06:48;;;;;;;3.03;2.55;;;;;;;19.05;42.88;101272.44;5139704;27;20030;-47
2022/04/25 11:09:36;;;;;;;6.30;3.33;;;;;;;19.06;42.80;101273.28;5142758;27;20052;-49
2022/04/25 11:12:01;;;;;;;3.40;2.80;;;;;;;19.03;42.88;101276.28;5122984;27;20046;-45
2022/04/25 11:14:28;;;;;;;2.65;2.28;;;;;;;19.02;42.89;101275.44;5122539;27;20532;-48
2022/04/25 11:17:13;;;;;;;3.55;2.42;;;;;;;19.03;42.86;101282.56;5144289;27;20042;-49
2022/04/25 11:19:51;;;;;;;4.13;2.90;;;;;;;19.02;43.03;101280.84;5141295;27;20026;-49
2022/04/25 11:22:35;;;;;;;3.88;2.80;;;;;;;19.02;42.95;101274.59;5119916;27;20027;-48
2022/04/25 11:25:25;;;;;;;4.50;2.55;;;;;;;19.01;43.10;101281.00;5124247;27;20033;-48
2022/04/25 11:28:04;;;;;;;3.55;2.55;;;;;;;19.01;42.92;101283.69;5138822;27;20106;-47
2022/04/25 11:30:30;;;;;;;3.00;2.47;;;;;;;18.99;43.18;101291.97;5121136;27;20030;-47
2022/04/25 11:33:03;;;;;;;3.70;2.38;;;;;;;18.99;43.19;101286.56;5121788;27;20023;-50
2022/04/25 11:35:29;;;;;;;2.70;2.42;;;;;;;18.89;43.36;101275.88;5141895;27;20389;-46
2022/04/25 11:37:57;;;;;;;4.00;3.17;;;;;;;19.00;43.28;101287.41;5140468;27;20076;-52
2022/04/25 11:40:23;;;;;;;3.45;2.90;;;;;;;18.98;42.91;101288.38;5123391;27;20050;-47
2022/04/25 11:42:49;;;;;;;3.95;2.95;;;;;;;18.90;43.09;101280.28;5122667;27;20607;-47
2022/04/25 11:45:14;;;;;;;3.65;2.58;;;;;;;19.00;43.42;101298.19;5142274;27;20011;-46
2022/04/25 11:47:39;;;;;;;3.83;2.58;;;;;;;19.00;43.30;101295.50;5142756;27;20625;-48
2022/04/25 11:50:07;;;;;;;4.10;2.53;;;;;;;18.99;43.59;101300.03;5142458;27;20098;-49
2022/04/25 11:52:33;;;;;;;3.58;2.53;;;;;;;19.00;43.32;101296.34;5105901;27;20053;-47
2022/04/25 11:54:58;;;;;;;4.35;2.92;;;;;;;19.00;43.31;101295.50;5087706;28;20024;-48